Tuesday, July 17, 2018, 12:18 AM CDT
Back to Local

KCNU, Chanute Johnson Airport

Location: Chanute, KS, United States Lat: 37.667
Local Time: 12:18 AM CDT ( 5:18 GMT) Lon: -95.483
Time Zone: US/Central Elev: 1000 ft

Show me the last for .
Show Decoded

2018-07-16 23:52 METAR KCNU 170452Z AUTO 00000KT 10SM CLR 24/22 A3003 RMK AO2 SLP158 T02390217 =
2018-07-16 22:52 METAR KCNU 170352Z AUTO 00000KT 10SM CLR 24/22 A3003 RMK AO2 SLP156 T02440217 =
2018-07-16 21:52 METAR KCNU 170252Z AUTO 17005KT 10SM CLR 26/22 A3002 RMK AO2 SLP154 T02560217
                 53009 =
2018-07-16 20:52 METAR KCNU 170152Z AUTO 14005KT 10SM CLR 28/23 A3000 RMK AO2 SLP145 T02830228 =
2018-07-16 19:52 METAR KCNU 170052Z AUTO 07005KT 10SM CLR 33/22 A3000 RMK AO2 LTG DSNT S SLP143
                 T03280217 =
2018-07-16 18:52 METAR KCNU 162352Z AUTO 09004KT 10SM CLR 34/22 A2999 RMK AO2 SLP143 T03390217
                 10339 20311 55003 =
2018-07-16 17:52 METAR KCNU 162252Z AUTO 10SM CLR 33/22 A2999 RMK AO2 SLP142 T03330222 =
2018-07-16 16:52 METAR KCNU 162152Z AUTO 31005KT 10SM CLR 34/23 A2999 RMK AO2 SLP143 T03390233 =
2018-07-16 14:52 METAR KCNU 161952Z AUTO 36005KT 10SM CLR 33/23 A3002 RMK AO2 SLP151 T03280233 =
2018-07-16 13:52 METAR KCNU 161852Z AUTO 32006KT 10SM CLR 32/23 A3004 RMK AO2 SLP161 T03170228 =
2018-07-16 12:52 METAR KCNU 161752Z AUTO 33003KT 10SM CLR 32/23 A3006 RMK AO2 RAE1653B26E36
                 SLP165 P0000 60004 T03220233 10322 20233 55006 =
2018-07-16 11:52 METAR KCNU 161652Z AUTO 36006KT 10SM -RA CLR 29/23 A3005 RMK AO2 RAB27 SLP164
                 P0000 T02940233 =
2018-07-16 10:52 METAR KCNU 161552Z AUTO 33005KT 10SM FEW037 27/24 A3007 RMK AO2 RAE41 SLP170
                 P0000 T02720239 =
2018-07-16 09:52 METAR KCNU 161452Z AUTO 34005KT 10SM -RA FEW047 SCT065 BKN100 26/24 A3007 RMK
                 AO2 RAB12 SLP172 P0004 60004 T02560239 53019 =
2018-07-16 09:37 METAR KCNU 161437Z AUTO 34009KT 4SM VCTS RA FEW027 BKN047 OVC110 26/23 A3007 =
2018-07-16 08:52 METAR KCNU 161352Z AUTO 00000KT 10SM SCT065 28/22 A3005 RMK AO2 LTG DSNT W AND
                 NW SLP162 T02830222 =
2018-07-16 07:52 METAR KCNU 161252Z AUTO 00000KT 10SM CLR 26/22 A3003 RMK AO2 SLP157 T02610222 =
2018-07-16 06:52 METAR KCNU 161152Z AUTO 00000KT 10SM CLR 23/22 A3002 RMK AO2 SLP153 T02330222
                 10233 20222 53008 =
2018-07-16 05:52 METAR KCNU 161052Z AUTO 00000KT 10SM CLR 22/22 A3000 RMK AO2 SLP149 T02220217 =
2018-07-16 04:52 METAR KCNU 160952Z AUTO 35003KT 10SM CLR 23/22 A2999 RMK AO2 SLP144 T02280222 =
2018-07-16 03:52 METAR KCNU 160852Z AUTO 00000KT 10SM CLR 22/22 A2999 RMK AO2 SLP142 T02220222
                 55006 =
2018-07-16 02:52 METAR KCNU 160752Z AUTO 00000KT 10SM CLR 22/22 A2999 RMK AO2 SLP141 T02220222 =
2018-07-16 01:52 METAR KCNU 160652Z AUTO 00000KT 10SM CLR 23/22 A3000 RMK AO2 SLP144 T02280222 =
2018-07-16 00:52 METAR KCNU 160552Z AUTO 00000KT 10SM CLR 23/23 A3001 RMK AO2 SLP148 T02330228
                 10283 20228 403560228 50006 =

Support USWX by starting your Amazon purchase here.